»·PEaware :: N3891R KSMO-KBFL

N3891R :: KSMO-KBFL

FLIGHT INFORMATION

Flight Status: Arrived
Operator: Privately registered:
United States
More flights under this callsign
Pilot: Markus B. (22479)
Aircraft: BEECH AIRCRAFT BARON
(BE58)
More flights by this aircraft type
Origin: KSMO Santa Monica Mun
United States
Destination: KBFL Meadows
United States
More flights between these airports :: More routes between these airports
Route: +TPNGA2 SADDE FIM GMN
File this flight plan on PilotEdge
Remarks:
Altitude:
(Current/Filed)
9,500ft
Speed:
(Current/Filed)
170kts
Departed: 11-Jul-19 04:31 PM
Arrived: 11-Jul-19 05:09 PM
Distance/Time
Traveled:
90nm/0:38
Distance/Time
To Go:
Arrived

Flight Plot

Page will automatically refresh every two minutes.

Flight plan parsing failed; only flown route is shown


Map Options




Map Legend


Flown Route
Filed Route
Departure Airport
Arrival Airport
Navaid (VOR, NDB)
Fix

Horizontal Profiles

Position Reports

Time Latitude Longitude Heading Altitude Ground
Speed
11-Jul-19 16:14 34.012550 -118.455189 44 179ft 0kts
11-Jul-19 16:15 34.012550 -118.455189 44 179ft 0kts
11-Jul-19 16:16 34.013397 -118.455433 28 179ft 8kts
11-Jul-19 16:17 34.013551 -118.455489 132 179ft 0kts
11-Jul-19 16:18 34.013551 -118.455489 132 179ft 0kts
11-Jul-19 16:19 34.013551 -118.455489 132 179ft 0kts
11-Jul-19 16:20 34.013551 -118.455489 132 179ft 0kts
11-Jul-19 16:21 34.013551 -118.455489 132 179ft 0kts
11-Jul-19 16:22 34.013551 -118.455489 132 179ft 0kts
11-Jul-19 16:23 34.013551 -118.455489 132 179ft 0kts
11-Jul-19 16:24 34.013551 -118.455489 132 179ft 0kts
11-Jul-19 16:25 34.013776 -118.454857 44 179ft 8kts
11-Jul-19 16:26 34.017216 -118.450788 43 179ft 18kts
11-Jul-19 16:27 34.019606 -118.447945 51 179ft 0kts
11-Jul-19 16:28 34.019580 -118.447765 137 179ft 0kts
11-Jul-19 16:29 34.019580 -118.447765 137 179ft 0kts
11-Jul-19 16:30 34.010649 -118.457412 224 408ft 121kts
11-Jul-19 16:31 33.983325 -118.488658 227 1981ft 135kts
11-Jul-19 16:32 33.960713 -118.523431 269 3585ft 133kts
11-Jul-19 16:33 33.978079 -118.561753 325 5072ft 131kts
11-Jul-19 16:34 34.012862 -118.575048 343 6235ft 146kts
11-Jul-19 16:35 34.056962 -118.591174 343 6727ft 150kts
11-Jul-19 16:36 34.090919 -118.603434 344 8287ft 119kts
11-Jul-19 16:37 34.123813 -118.615219 344 9137ft 144kts
11-Jul-19 16:38 34.167532 -118.630862 344 9125ft 174kts
11-Jul-19 16:39 34.214491 -118.647715 344 9122ft 178kts
11-Jul-19 16:40 34.260286 -118.664178 343 9122ft 178kts
11-Jul-19 16:41 34.308059 -118.681371 343 9122ft 178kts
11-Jul-19 16:42 34.355581 -118.698493 343 9122ft 178kts
11-Jul-19 16:43 34.403115 -118.715640 343 9122ft 178kts
11-Jul-19 16:44 34.450732 -118.732838 343 9122ft 178kts
11-Jul-19 16:45 34.494824 -118.748821 343 9894ft 149kts
11-Jul-19 16:46 34.533823 -118.762941 343 10689ft 145kts
11-Jul-19 16:47 34.573446 -118.777287 343 11170ft 158kts
11-Jul-19 16:48 34.618150 -118.793490 343 11184ft 173kts
11-Jul-19 16:49 34.664758 -118.810418 343 11182ft 175kts
11-Jul-19 16:50 34.711470 -118.827402 343 11182ft 175kts
11-Jul-19 16:51 34.758136 -118.844387 343 11182ft 175kts
11-Jul-19 16:52 34.805090 -118.860036 356 11185ft 175kts
11-Jul-19 16:53 34.856441 -118.860996 0 10643ft 191kts
11-Jul-19 16:54 34.910192 -118.861065 0 10051ft 193kts
11-Jul-19 16:55 34.965213 -118.861052 0 9230ft 197kts
11-Jul-19 16:56 35.017582 -118.861232 0 9167ft 181kts
11-Jul-19 16:57 35.069834 -118.864396 356 8574ft 197kts
11-Jul-19 16:58 35.124089 -118.863213 22 7783ft 199kts
11-Jul-19 16:59 35.178714 -118.858995 359 7003ft 199kts
11-Jul-19 17:00 35.234231 -118.859589 359 6270ft 199kts
11-Jul-19 17:01 35.278904 -118.874279 320 4542ft 136kts
11-Jul-19 17:02 35.305645 -118.900595 318 2891ft 119kts
11-Jul-19 17:03 35.329424 -118.929536 313 2669ft 121kts
11-Jul-19 17:04 35.354530 -118.960854 316 2626ft 110kts
11-Jul-19 17:05 35.377695 -118.988629 316 2216ft 122kts
11-Jul-19 17:06 35.402023 -119.017669 317 1331ft 121kts
11-Jul-19 17:07 35.426015 -119.046854 316 656ft 117kts
11-Jul-19 17:08 35.436331 -119.057296 94 510ft 0kts

Navigation Log

Ident Type
Flight plan parsing failed, navigation log unavailable